createdAt,value
2022-09-04T00:01:10.661Z,8.13
2022-09-04T00:03:42.410Z,7.50
2022-09-04T00:06:14.083Z,8.40
2022-09-04T00:09:04.407Z,5.88
2022-09-04T00:11:44.946Z,8.27
2022-09-04T00:14:16.102Z,6.63
2022-09-04T00:16:47.592Z,7.03
2022-09-04T00:19:17.702Z,8.63
2022-09-04T00:21:48.360Z,11.23
2022-09-04T00:24:16.795Z,7.95
2022-09-04T00:26:50.195Z,6.05
2022-09-04T00:29:21.885Z,9.63
2022-09-04T00:31:53.297Z,7.05
2022-09-04T00:34:31.631Z,9.38
2022-09-04T00:37:01.356Z,9.27
2022-09-04T00:39:32.471Z,6.63
2022-09-04T00:42:03.990Z,9.13
2022-09-04T00:44:52.968Z,6.47
2022-09-04T00:47:44.433Z,10.82
2022-09-04T00:50:19.569Z,9.45
2022-09-04T00:52:59.464Z,7.07
2022-09-04T00:55:42.225Z,7.22
2022-09-04T00:58:25.234Z,6.15
2022-09-04T01:00:53.423Z,8.52
2022-09-04T01:03:46.455Z,7.10
2022-09-04T01:06:29.523Z,9.88
2022-09-04T01:09:18.849Z,6.70
2022-09-04T01:11:51.438Z,8.48
2022-09-04T01:14:21.896Z,6.28
2022-09-04T01:16:52.369Z,6.90
2022-09-04T01:19:31.634Z,8.90
2022-09-04T01:22:14.060Z,5.82
2022-09-04T01:25:08.757Z,6.30
2022-09-04T01:27:44.071Z,5.75
2022-09-04T01:30:13.517Z,7.45
2022-09-04T01:32:46.045Z,6.75
2022-09-04T01:35:20.835Z,7.70
2022-09-04T01:37:54.125Z,7.25
2022-09-04T01:40:42.750Z,6.20
2022-09-04T01:43:12.763Z,8.82
2022-09-04T01:46:05.039Z,5.03
2022-09-04T01:48:37.461Z,6.25
2022-09-04T01:51:09.922Z,5.50
2022-09-04T01:53:38.324Z,4.80
2022-09-04T01:56:11.270Z,5.50
2022-09-04T01:58:43.035Z,7.18
2022-09-04T02:01:15.931Z,5.25
2022-09-04T02:03:52.432Z,5.18
2022-09-04T02:06:23.266Z,7.30
2022-09-04T02:08:58.802Z,12.13
2022-09-04T02:11:28.448Z,8.85
2022-09-04T02:14:12.167Z,5.35
2022-09-04T02:16:47.306Z,4.85
2022-09-04T02:19:23.842Z,6.57
2022-09-04T02:21:57.340Z,5.97
2022-09-04T02:24:26.934Z,7.47
2022-09-04T02:26:59.512Z,4.60
2022-09-04T02:29:33.184Z,5.68
2022-09-04T02:32:05.199Z,6.13
2022-09-04T02:34:38.855Z,5.35
2022-09-04T02:37:10.415Z,5.80
2022-09-04T02:39:44.384Z,5.60
2022-09-04T02:42:18.139Z,5.20
2022-09-04T02:44:49.848Z,5.78
2022-09-04T02:47:23.724Z,5.78
2022-09-04T02:49:58.383Z,5.72
2022-09-04T02:52:41.812Z,5.47
2022-09-04T02:55:15.892Z,5.72
2022-09-04T02:57:54.992Z,7.63
2022-09-04T03:00:28.285Z,5.55
2022-09-04T03:02:59.479Z,5.93
2022-09-04T03:05:29.254Z,6.40
2022-09-04T03:07:59.809Z,5.30
2022-09-04T03:10:30.973Z,3.90
2022-09-04T03:13:02.728Z,4.72
2022-09-04T03:15:35.035Z,10.40
2022-09-04T03:18:06.113Z,6.55
2022-09-04T03:20:38.144Z,8.15
2022-09-04T03:23:11.429Z,5.88
2022-09-04T03:25:57.777Z,4.75
2022-09-04T03:28:34.124Z,8.40
2022-09-04T03:31:14.997Z,4.70
2022-09-04T03:33:45.199Z,4.70
2022-09-04T03:36:15.514Z,5.78
2022-09-04T03:38:47.305Z,5.65
2022-09-04T03:41:19.860Z,5.13
2022-09-04T03:43:54.835Z,4.30
2022-09-04T03:46:31.920Z,8.02
2022-09-04T03:49:08.913Z,5.20
2022-09-04T03:51:43.426Z,6.72
2022-09-04T03:54:17.792Z,4.55
2022-09-04T03:56:52.264Z,4.70
2022-09-04T03:59:27.470Z,6.22
2022-09-04T04:02:00.176Z,4.95
2022-09-04T04:05:04.457Z,4.03
2022-09-04T04:07:36.596Z,6.40
2022-09-04T04:10:13.462Z,7.05
2022-09-04T04:12:49.897Z,7.60
2022-09-04T04:15:27.721Z,4.35
2022-09-04T04:18:28.149Z,4.72
2022-09-04T04:20:59.842Z,7.05
2022-09-04T04:23:58.055Z,5.32
2022-09-04T04:26:40.679Z,7.30
2022-09-04T04:29:40.703Z,5.22
2022-09-04T04:32:31.705Z,11.65
2022-09-04T04:35:08.654Z,12.10
2022-09-04T04:37:44.504Z,14.77
2022-09-04T04:40:16.457Z,32.28
2022-09-04T04:42:47.578Z,20.55
2022-09-04T04:45:38.735Z,22.27
2022-09-04T04:48:47.587Z,24.95
2022-09-04T04:51:31.547Z,21.77
2022-09-04T04:54:01.742Z,22.83
2022-09-04T04:56:33.070Z,31.15
2022-09-04T04:59:05.754Z,24.30
2022-09-04T05:01:43.349Z,25.67
2022-09-04T05:04:16.406Z,22.00
2022-09-04T05:06:48.764Z,21.48
2022-09-04T05:09:20.384Z,18.80
2022-09-04T05:11:54.102Z,20.98
2022-09-04T05:14:34.313Z,21.25
2022-09-04T05:17:06.790Z,22.13
2022-09-04T05:19:39.718Z,19.70
2022-09-04T05:22:15.136Z,19.13
2022-09-04T05:24:50.210Z,15.25
2022-09-04T05:27:49.552Z,22.42
2022-09-04T05:30:19.542Z,18.83
2022-09-04T05:32:53.077Z,19.35
2022-09-04T05:35:24.041Z,20.33
2022-09-04T05:37:57.665Z,23.38
2022-09-04T05:40:30.113Z,21.65
2022-09-04T05:43:06.250Z,16.23
2022-09-04T05:45:41.286Z,16.85
2022-09-04T05:48:14.842Z,19.98
2022-09-04T05:51:05.208Z,16.73
2022-09-04T05:54:02.847Z,16.02
2022-09-04T05:56:51.831Z,15.52
2022-09-04T05:59:42.443Z,18.38
2022-09-04T06:02:33.876Z,14.00
2022-09-04T06:05:09.448Z,11.82
2022-09-04T06:07:39.402Z,18.35
2022-09-04T06:10:12.352Z,15.63
2022-09-04T06:13:04.435Z,15.88
2022-09-04T06:15:37.881Z,13.98
2022-09-04T06:18:26.570Z,13.90
2022-09-04T06:21:06.287Z,11.80
2022-09-04T06:24:01.767Z,12.18
2022-09-04T06:26:39.033Z,12.00
2022-09-04T06:29:21.979Z,14.95
2022-09-04T06:31:57.806Z,14.10
2022-09-04T06:34:31.963Z,10.60
2022-09-04T06:37:12.916Z,12.93
2022-09-04T06:39:55.852Z,10.55
2022-09-04T06:42:37.298Z,11.80
2022-09-04T06:45:19.592Z,13.15
2022-09-04T06:48:09.693Z,12.43
2022-09-04T06:50:45.561Z,13.27
2022-09-04T06:53:28.968Z,11.45
2022-09-04T06:56:09.871Z,14.43
2022-09-04T06:59:01.541Z,14.07
2022-09-04T07:01:34.580Z,12.48
2022-09-04T07:04:07.453Z,9.68
2022-09-04T07:06:46.572Z,11.90
2022-09-04T07:09:17.370Z,11.35
2022-09-04T07:12:02.121Z,12.45
2022-09-04T07:14:43.869Z,13.93
2022-09-04T07:17:15.877Z,11.52
2022-09-04T07:20:04.967Z,11.35
2022-09-04T07:22:51.342Z,10.85
2022-09-04T07:25:22.318Z,12.88
2022-09-04T07:28:15.345Z,11.25
2022-09-04T07:30:47.261Z,13.63
2022-09-04T07:33:18.907Z,12.43
2022-09-04T07:35:55.423Z,10.90
2022-09-04T07:38:28.027Z,8.95
2022-09-04T07:40:59.275Z,12.13
2022-09-04T07:43:31.324Z,9.43
2022-09-04T07:46:05.335Z,8.98
2022-09-04T07:48:35.991Z,11.88
2022-09-04T07:51:10.668Z,12.27
2022-09-04T07:54:23.019Z,7.32
2022-09-04T07:57:03.649Z,10.57
2022-09-04T07:59:46.796Z,13.40
2022-09-04T08:02:32.926Z,9.68
2022-09-04T08:05:29.081Z,10.32
2022-09-04T08:08:41.839Z,7.93
2022-09-04T08:11:47.497Z,9.63
2022-09-04T08:14:37.748Z,9.77
2022-09-04T08:17:43.129Z,12.70
2022-09-04T08:20:22.453Z,15.95
2022-09-04T08:22:56.554Z,23.05
2022-09-04T08:25:28.770Z,32.92
2022-09-04T08:28:17.579Z,20.23
2022-09-04T08:30:52.614Z,13.18
2022-09-04T08:33:38.593Z,16.80
2022-09-04T08:36:10.834Z,30.63
2022-09-04T08:39:00.511Z,49.38
2022-09-04T08:42:04.966Z,55.63
2022-09-04T08:45:06.041Z,48.33
2022-09-04T08:48:09.281Z,60.63
2022-09-04T08:51:16.308Z,66.03
2022-09-04T08:54:16.310Z,74.38
2022-09-04T08:56:47.267Z,78.30
2022-09-04T08:59:55.842Z,83.45
2022-09-04T09:03:17.952Z,96.75
2022-09-04T09:06:39.949Z,87.90
2022-09-04T09:09:58.734Z,83.85
2022-09-04T09:13:02.464Z,82.72
2022-09-04T09:15:58.950Z,77.75
2022-09-04T09:18:37.122Z,71.65
2022-09-04T09:21:10.283Z,68.88
2022-09-04T09:23:52.200Z,56.53
2022-09-04T09:26:31.355Z,70.15
2022-09-04T09:29:35.010Z,59.85
2022-09-04T09:32:34.313Z,50.45
2022-09-04T09:35:26.999Z,54.17
2022-09-04T09:38:32.673Z,54.67
2022-09-04T09:41:14.561Z,52.53
2022-09-04T09:44:10.328Z,55.40
2022-09-04T09:47:13.590Z,47.17
2022-09-04T09:50:11.745Z,44.60
2022-09-04T09:53:15.512Z,47.72
2022-09-04T09:56:04.440Z,48.85
2022-09-04T09:59:03.176Z,44.13
2022-09-04T10:01:49.867Z,45.13
2022-09-04T10:04:55.817Z,38.47
2022-09-04T10:08:04.311Z,40.40
2022-09-04T10:10:56.998Z,35.20
2022-09-04T10:13:50.371Z,33.85
2022-09-04T10:16:36.542Z,34.15
2022-09-04T10:19:46.387Z,38.63
2022-09-04T10:22:37.761Z,33.40
2022-09-04T10:25:35.211Z,34.70
2022-09-04T10:28:17.972Z,31.85
2022-09-04T10:31:00.769Z,34.72
2022-09-04T10:33:32.874Z,31.55
2022-09-04T10:36:20.255Z,31.02
2022-09-04T10:39:13.072Z,32.35
2022-09-04T10:41:58.939Z,27.65
2022-09-04T10:44:45.735Z,25.10
2022-09-04T10:47:20.211Z,26.65
2022-09-04T10:49:55.146Z,28.90
2022-09-04T10:52:51.440Z,26.25
2022-09-04T10:55:47.639Z,30.17
2022-09-04T10:58:39.997Z,26.92
2022-09-04T11:01:44.355Z,24.80
2022-09-04T11:04:27.346Z,24.48
2022-09-04T11:07:04.889Z,26.80
2022-09-04T11:09:44.541Z,30.02
2022-09-04T11:12:33.736Z,21.92
2022-09-04T11:15:12.640Z,21.70
2022-09-04T11:18:02.670Z,21.17
2022-09-04T11:21:12.625Z,21.20
2022-09-04T11:23:59.206Z,18.67
2022-09-04T11:27:20.347Z,21.73
2022-09-04T11:29:59.319Z,15.98
2022-09-04T11:32:53.230Z,18.45
2022-09-04T11:35:56.589Z,18.33
2022-09-04T11:38:43.702Z,18.48
2022-09-04T11:41:43.272Z,20.45
2022-09-04T11:44:28.482Z,19.10
2022-09-04T11:47:35.208Z,18.05
2022-09-04T11:50:31.669Z,20.27
2022-09-04T11:53:23.123Z,18.67
2022-09-04T11:55:59.229Z,15.75
2022-09-04T11:58:36.959Z,17.38
2022-09-04T12:01:16.190Z,17.48
2022-09-04T12:03:59.611Z,16.85
2022-09-04T12:06:35.068Z,16.48
2022-09-04T12:09:33.769Z,15.82
2022-09-04T12:12:14.285Z,14.90
2022-09-04T12:15:07.598Z,13.20
2022-09-04T12:18:02.358Z,14.05
2022-09-04T12:21:12.215Z,16.38
2022-09-04T12:23:55.873Z,16.60
2022-09-04T12:26:40.201Z,14.23
2022-09-04T12:30:02.263Z,14.07
2022-09-04T12:33:20.734Z,13.00
2022-09-04T12:36:07.001Z,12.23
2022-09-04T12:39:07.880Z,10.77
2022-09-04T12:41:37.231Z,13.73
2022-09-04T12:44:11.748Z,10.90
2022-09-04T12:46:50.356Z,12.77
2022-09-04T12:50:00.008Z,12.43
2022-09-04T12:52:36.658Z,16.88
2022-09-04T12:55:10.193Z,12.90
2022-09-04T12:57:42.496Z,11.73
2022-09-04T13:00:12.306Z,10.63
2022-09-04T13:02:49.230Z,11.70
2022-09-04T13:05:33.624Z,11.55
2022-09-04T13:08:06.997Z,11.02
2022-09-04T13:10:39.612Z,10.63
2022-09-04T13:13:13.911Z,10.90
2022-09-04T13:15:46.875Z,10.40
2022-09-04T13:18:24.286Z,11.30
2022-09-04T13:20:57.319Z,12.02
2022-09-04T13:23:39.816Z,12.15
2022-09-04T13:26:28.491Z,10.90
2022-09-04T13:29:00.416Z,9.75
2022-09-04T13:31:44.735Z,9.88
2022-09-04T13:34:17.684Z,8.25
2022-09-04T13:36:54.101Z,9.40
2022-09-04T13:39:46.006Z,10.38
2022-09-04T13:42:40.752Z,8.55
2022-09-04T13:45:12.168Z,10.15
2022-09-04T13:47:45.001Z,8.13
2022-09-04T13:50:17.272Z,9.57
2022-09-04T13:52:46.598Z,10.82
2022-09-04T13:55:17.976Z,9.32
2022-09-04T13:57:49.962Z,8.93
2022-09-04T14:00:18.247Z,11.20
2022-09-04T14:02:47.597Z,9.75
2022-09-04T14:05:17.883Z,10.23
2022-09-04T14:07:47.692Z,9.00
2022-09-04T14:10:17.888Z,8.30
2022-09-04T14:13:03.903Z,7.20
2022-09-04T14:15:44.687Z,10.25
2022-09-04T14:18:21.102Z,9.32
2022-09-04T14:21:01.153Z,8.50
2022-09-04T14:23:37.946Z,7.82
2022-09-04T14:26:12.416Z,8.70
2022-09-04T14:28:44.954Z,7.25
2022-09-04T14:31:14.877Z,8.05
2022-09-04T14:33:45.792Z,8.88
2022-09-04T14:36:22.128Z,9.25
2022-09-04T14:39:02.327Z,6.15
2022-09-04T14:41:38.708Z,6.65
2022-09-04T14:44:20.392Z,7.32
2022-09-04T14:46:55.430Z,7.75
2022-09-04T14:49:24.678Z,9.50
2022-09-04T14:51:56.791Z,8.30
2022-09-04T14:54:26.713Z,7.15
2022-09-04T14:56:56.694Z,6.47
2022-09-04T14:59:27.744Z,7.40
2022-09-04T15:02:13.726Z,8.50
2022-09-04T15:04:46.713Z,7.93
2022-09-04T15:07:25.076Z,6.05
2022-09-04T15:09:54.753Z,7.22
2022-09-04T15:12:25.706Z,8.88
2022-09-04T15:14:57.555Z,9.02
2022-09-04T15:17:28.259Z,8.05
2022-09-04T15:19:59.852Z,7.80
2022-09-04T15:22:30.989Z,7.63
2022-09-04T15:25:00.687Z,6.90
2022-09-04T15:27:32.540Z,7.88
2022-09-04T15:30:06.979Z,8.98
2022-09-04T15:32:39.722Z,6.18
2022-09-04T15:35:19.405Z,7.60
2022-09-04T15:37:48.780Z,7.13
2022-09-04T15:40:23.590Z,7.13
2022-09-04T15:42:59.275Z,6.07
2022-09-04T15:45:32.550Z,5.82
2022-09-04T15:48:27.733Z,6.57
2022-09-04T15:51:01.958Z,5.75
2022-09-04T15:53:32.028Z,7.05
2022-09-04T15:56:09.320Z,7.25
2022-09-04T15:58:53.232Z,6.53
2022-09-04T16:01:26.134Z,6.93
2022-09-04T16:04:01.741Z,6.53
2022-09-04T16:06:32.347Z,5.55
2022-09-04T16:09:03.202Z,6.72
2022-09-04T16:11:34.307Z,7.97
2022-09-04T16:14:03.701Z,6.28
2022-09-04T16:16:35.649Z,5.28
2022-09-04T16:19:08.333Z,6.70
2022-09-04T16:21:50.887Z,5.22
2022-09-04T16:24:20.026Z,5.88
2022-09-04T16:26:51.226Z,7.03
2022-09-04T16:29:36.458Z,6.32
2022-09-04T16:32:12.455Z,8.95
2022-09-04T16:34:46.415Z,7.05
2022-09-04T16:37:15.785Z,6.18
2022-09-04T16:39:51.430Z,6.07
2022-09-04T16:42:22.562Z,8.60
2022-09-04T16:44:52.298Z,12.95
2022-09-04T16:47:24.608Z,7.40
2022-09-04T16:49:56.682Z,6.10
2022-09-04T16:52:44.752Z,10.20
2022-09-04T16:55:14.910Z,12.43
2022-09-04T16:57:47.481Z,8.07
2022-09-04T17:00:17.597Z,6.30
2022-09-04T17:02:49.075Z,8.20
2022-09-04T17:05:23.549Z,11.30
2022-09-04T17:08:00.491Z,9.32
2022-09-04T17:10:36.455Z,7.07
2022-09-04T17:13:10.341Z,5.57
2022-09-04T17:15:53.600Z,7.32
2022-09-04T17:18:24.218Z,8.20
2022-09-04T17:25:32.732Z,7.72
2022-09-04T17:28:54.220Z,9.13
2022-09-04T17:29:15.418Z,7.70
2022-09-04T17:29:38.006Z,6.82
2022-09-04T17:32:35.448Z,7.78
2022-09-04T17:40:43.888Z,7.25
2022-09-04T17:40:55.856Z,5.95
2022-09-04T17:41:39.510Z,8.95
2022-09-04T17:43:59.726Z,11.40
2022-09-04T17:46:32.319Z,7.25
2022-09-04T17:49:00.623Z,6.55
2022-09-04T17:51:32.042Z,4.30
2022-09-04T17:54:01.411Z,5.40
2022-09-04T17:56:31.521Z,7.88
2022-09-04T17:59:02.319Z,4.05
2022-09-04T18:01:31.949Z,5.20
2022-09-04T18:04:20.555Z,7.22
2022-09-04T18:06:53.331Z,6.22
2022-09-04T18:09:26.722Z,5.28
2022-09-04T18:12:00.931Z,8.10
2022-09-04T18:14:34.561Z,5.85
2022-09-04T18:17:12.681Z,9.85
2022-09-04T18:19:44.740Z,11.20
2022-09-04T18:22:25.454Z,9.38
2022-09-04T18:24:56.596Z,6.45
2022-09-04T18:27:26.216Z,8.77
2022-09-04T18:32:23.474Z,5.20
2022-09-04T18:37:18.981Z,7.40
2022-09-04T18:37:22.649Z,8.57
2022-09-04T18:38:39.979Z,6.43
2022-09-04T18:46:06.574Z,11.18
2022-09-04T18:50:24.308Z,10.43
2022-09-04T18:50:45.517Z,7.18
2022-09-04T18:50:49.097Z,6.70
2022-09-04T18:52:44.052Z,5.30
2022-09-04T18:55:15.837Z,8.13
2022-09-04T18:57:49.164Z,9.88
2022-09-04T19:00:24.129Z,8.55
2022-09-04T19:02:54.841Z,5.65
2022-09-04T19:05:24.161Z,6.32
2022-09-04T19:07:54.050Z,4.90
2022-09-04T19:10:25.532Z,4.40
2022-09-04T19:13:03.015Z,4.13
2022-09-04T19:15:39.821Z,5.15
2022-09-04T19:18:16.579Z,6.43
2022-09-04T19:20:48.237Z,4.75
2022-09-04T19:23:21.848Z,8.35
2022-09-04T19:25:54.989Z,8.32
2022-09-04T19:28:24.888Z,7.85
2022-09-04T19:30:54.458Z,10.25
2022-09-04T19:33:31.176Z,11.25
2022-09-04T19:36:01.928Z,6.97
2022-09-04T19:45:53.809Z,10.57
2022-09-04T19:46:06.658Z,7.28
2022-09-04T19:46:16.781Z,5.20
2022-09-04T19:47:27.490Z,6.70
2022-09-04T19:53:21.577Z,9.45
2022-09-04T19:53:31.574Z,8.65
2022-09-04T19:55:44.319Z,13.52
2022-09-04T19:58:16.327Z,9.55
2022-09-04T20:00:49.021Z,6.05
2022-09-04T20:03:29.524Z,9.23
2022-09-04T20:06:20.220Z,11.80
2022-09-04T20:08:51.788Z,7.55
2022-09-04T20:11:34.843Z,8.68
2022-09-04T20:14:14.431Z,6.70
2022-09-04T20:16:48.382Z,7.07
2022-09-04T20:19:24.514Z,8.48
2022-09-04T20:21:58.784Z,9.75
2022-09-04T20:24:28.156Z,8.73
2022-09-04T20:26:57.753Z,11.05
2022-09-04T20:29:30.773Z,9.23
2022-09-04T20:32:01.161Z,15.18
2022-09-04T20:34:39.108Z,24.05
2022-09-04T20:37:25.402Z,12.93
2022-09-04T20:40:01.472Z,15.38
2022-09-04T20:42:31.523Z,12.00
2022-09-04T20:48:04.987Z,10.90
2022-09-04T20:52:42.967Z,16.05
2022-09-04T20:52:53.165Z,15.93
2022-09-04T20:53:40.683Z,14.45
2022-09-04T20:56:42.307Z,14.68
2022-09-04T21:03:15.015Z,17.45
2022-09-04T21:03:23.853Z,10.52
2022-09-04T21:04:51.573Z,13.27
2022-09-04T21:07:26.902Z,11.57
2022-09-04T21:10:10.100Z,19.35
2022-09-04T21:12:40.069Z,16.40
2022-09-04T21:15:14.667Z,11.60
2022-09-04T21:18:18.323Z,13.73
2022-09-04T21:20:59.589Z,12.75
2022-09-04T21:24:12.621Z,11.43
2022-09-04T21:27:22.715Z,13.48
2022-09-04T21:29:59.407Z,10.80
2022-09-04T21:32:31.621Z,11.35
2022-09-04T21:35:07.898Z,13.82
2022-09-04T21:37:41.874Z,7.80
2022-09-04T21:40:51.420Z,9.57
2022-09-04T21:44:05.820Z,7.95
2022-09-04T21:47:08.734Z,9.40
2022-09-04T21:50:25.210Z,8.10
2022-09-04T21:53:07.225Z,11.35
2022-09-04T22:00:09.355Z,16.80
2022-09-04T22:02:35.102Z,10.93
2022-09-04T22:02:38.452Z,16.17
2022-09-04T22:04:39.225Z,12.95
2022-09-04T22:12:50.227Z,16.00
2022-09-04T22:13:33.246Z,11.48
2022-09-04T22:13:46.789Z,10.52
2022-09-04T22:15:57.432Z,12.05
2022-09-04T22:18:46.136Z,13.32
2022-09-04T22:21:26.028Z,11.57
2022-09-04T22:24:11.829Z,13.52
2022-09-04T22:27:16.031Z,10.82
2022-09-04T22:29:51.185Z,12.63
2022-09-04T22:32:49.234Z,12.18
2022-09-04T22:36:04.959Z,10.73
2022-09-04T22:38:48.111Z,10.68
2022-09-04T22:41:36.035Z,13.60
2022-09-04T22:44:11.553Z,8.82
2022-09-04T22:46:50.861Z,8.73
2022-09-04T22:49:51.903Z,12.25
2022-09-04T22:52:32.310Z,9.68
2022-09-04T22:55:38.979Z,12.90
2022-09-04T22:58:19.464Z,10.48
2022-09-04T23:01:07.532Z,13.18
2022-09-04T23:03:42.019Z,8.77
2022-09-04T23:08:31.185Z,10.63
2022-09-04T23:13:47.440Z,11.70
2022-09-04T23:13:49.257Z,10.05
2022-09-04T23:15:35.987Z,8.35
2022-09-04T23:19:31.302Z,8.35
2022-09-04T23:26:46.250Z,8.48
2022-09-04T23:26:49.220Z,11.43
2022-09-04T23:27:28.297Z,8.43
2022-09-04T23:30:26.410Z,7.68
2022-09-04T23:33:31.779Z,8.85
2022-09-04T23:36:03.097Z,7.22
2022-09-04T23:38:54.776Z,8.35
2022-09-04T23:41:31.085Z,9.00
2022-09-04T23:44:31.914Z,7.57
2022-09-04T23:47:05.790Z,5.95
2022-09-04T23:49:54.074Z,7.65
2022-09-04T23:52:27.395Z,6.43
2022-09-04T23:55:16.221Z,8.40
2022-09-04T23:57:49.585Z,9.93
